Time;durP1;ratioP1;P1;durP2;ratioP2;P2;SDS_P1;SDS_P2;PMS_P1;PMS_P2;Temp;Humidity;BMP_temperature;BMP_pressure;BME280_temperature;BME280_humidity;BME280_pressure;Samples;Min_cycle;Max_cycle;Signal;HPM_P1;HPM_P2
2022/10/04 05:15:45;;;;;;;4.75;1.85;;;;;;;18.14;60.91;102102.69;6287545;22;20081;31
2022/10/04 05:19:16;;;;;;;4.38;2.05;;;;;;;18.15;60.75;102091.44;6221010;23;20091;-82
2022/10/04 06:13:39;;;;;;;6.53;3.15;;;;;;;18.33;60.37;102064.63;6305969;22;21067;-81
2022/10/04 07:27:12;;;;;;;4.53;2.28;;;;;;;18.64;59.12;102060.47;6376703;22;20337;-82
2022/10/04 07:29:52;;;;;;;4.50;2.20;;;;;;;18.66;59.23;102066.56;6369489;22;20006;-82
2022/10/04 07:32:56;;;;;;;4.30;2.25;;;;;;;18.66;59.05;102070.06;6317458;22;20006;-82
2022/10/04 07:36:17;;;;;;;3.83;2.17;;;;;;;18.68;59.09;102068.34;6302323;22;20008;-81
2022/10/04 07:39:04;;;;;;;4.55;2.13;;;;;;;18.69;58.84;102067.47;6276393;22;20008;-82
2022/10/04 07:41:40;;;;;;;4.78;2.13;;;;;;;18.69;58.95;102070.06;6252182;22;20008;-82
2022/10/04 07:44:44;;;;;;;4.50;2.17;;;;;;;18.70;58.82;102068.34;6267865;22;20008;-81
2022/10/04 07:47:24;;;;;;;5.35;2.35;;;;;;;18.76;59.02;102072.72;6300872;22;19998;-83
2022/10/04 07:49:52;;;;;;;5.38;1.90;;;;;;;18.77;58.86;102071.84;6276926;22;20014;-82
2022/10/04 07:52:49;;;;;;;4.53;2.03;;;;;;;18.81;58.58;102065.81;6272089;22;20007;-82
2022/10/04 07:55:43;;;;;;;2.97;1.75;;;;;;;18.87;58.44;102079.75;6296805;22;20078;-81
2022/10/04 07:58:34;;;;;;;3.80;2.00;;;;;;;18.89;58.49;102084.97;6255053;23;20012;-81
2022/10/04 08:01:23;;;;;;;5.05;2.33;;;;;;;18.93;58.30;102078.91;6264962;23;19999;-81
2022/10/04 09:17:34;;;;;;;2.47;1.48;;;;;;;18.93;58.25;102052.84;6299869;22;20125;-81
2022/10/04 09:20:22;;;;;;;2.58;1.58;;;;;;;18.93;58.23;102041.53;6362697;22;20010;-81
2022/10/04 09:23:26;;;;;;;2.75;1.70;;;;;;;18.90;58.31;102043.28;6363129;22;20006;-81
2022/10/04 09:26:22;;;;;;;2.65;1.70;;;;;;;18.91;58.26;102034.56;6391279;22;20028;-81
2022/10/04 09:29:19;;;;;;;2.50;1.65;;;;;;;18.90;58.32;102018.91;6363901;22;20003;-81
2022/10/04 09:32:22;;;;;;;3.47;1.77;;;;;;;18.92;58.18;102017.16;6362272;22;20059;-81
2022/10/04 09:35:26;;;;;;;3.05;1.73;;;;;;;18.95;58.14;102017.19;6387455;22;20074;-81
2022/10/04 09:38:10;;;;;;;;;;;;;;;18.95;58.22;102024.16;6386681;22;20009;-81
2022/10/04 09:41:25;;;;;;;2.40;1.67;;;;;;;18.94;58.23;102032.84;6362166;22;19929;-80
2022/10/04 09:44:15;;;;;;;2.60;1.60;;;;;;;18.89;58.47;102028.47;6348936;22;20002;-81
2022/10/04 09:46:56;;;;;;;2.85;1.73;;;;;;;18.89;58.44;102036.28;6385847;22;20018;-81
2022/10/04 09:50:06;;;;;;;2.78;1.67;;;;;;;18.93;58.26;102041.53;6360718;22;20025;-81
2022/10/04 09:53:29;;;;;;;2.53;1.50;;;;;;;18.94;58.21;102032.84;6388825;22;20001;-80
2022/10/04 09:56:25;;;;;;;3.95;1.80;;;;;;;18.94;58.37;102033.69;6342216;22;20006;-80
2022/10/04 09:59:25;;;;;;;3.70;1.50;;;;;;;18.94;58.36;102032.84;6388486;22;20005;-80
2022/10/04 10:02:11;;;;;;;3.08;1.70;;;;;;;18.93;58.32;102037.19;6361259;22;20048;-81
2022/10/04 10:05:13;;;;;;;3.03;1.70;;;;;;;18.93;58.20;102039.78;6361834;22;20025;-80
2022/10/04 10:08:38;;;;;;;2.15;1.50;;;;;;;18.91;58.39;102034.56;6388369;22;20029;-81
2022/10/04 10:14:27;;;;;;;2.45;1.45;;;;;;;18.87;58.42;102040.63;6394360;22;20017;-81
2022/10/04 10:17:24;;;;;;;4.22;1.77;;;;;;;18.84;58.63;102037.16;6396505;22;20058;-81
2022/10/04 10:20:15;;;;;;;2.70;1.70;;;;;;;18.84;58.52;102035.41;6363981;22;20047;-81
2022/10/04 10:23:20;;;;;;;3.17;1.73;;;;;;;18.83;58.53;102031.03;6369093;22;19998;-80
2022/10/04 10:26:10;;;;;;;3.70;1.75;;;;;;;18.82;58.54;102023.25;6367236;22;20010;-81
2022/10/04 10:29:10;;;;;;;2.13;1.38;;;;;;;18.81;58.56;102024.09;6394634;22;20035;-81
2022/10/04 10:31:50;;;;;;;2.58;1.52;;;;;;;18.80;58.60;102015.41;6368837;22;20067;-80
2022/10/04 10:34:43;;;;;;;2.75;1.60;;;;;;;18.79;58.56;102008.44;6365259;22;20007;-81
2022/10/04 10:37:32;;;;;;;1.90;1.50;;;;;;;18.81;58.26;102011.03;6394474;22;19998;-80
2022/10/04 10:40:16;;;;;;;2.20;1.52;;;;;;;18.81;58.58;102011.03;6363936;22;20030;-80
2022/10/04 10:43:24;;;;;;;2.60;1.67;;;;;;;18.82;58.40;102011.06;6357897;22;20002;-80
2022/10/04 10:46:06;;;;;;;2.75;1.50;;;;;;;18.83;58.37;102014.53;6358554;22;20006;-81
2022/10/04 10:49:08;;;;;;;3.38;1.60;;;;;;;18.84;58.44;102011.94;6384210;22;20073;-80
2022/10/04 10:51:58;;;;;;;2.90;1.40;;;;;;;18.87;58.41;102006.72;6384829;22;20009;-80
2022/10/04 10:54:50;;;;;;;3.03;1.40;;;;;;;18.87;58.50;102001.50;6357258;22;20002;-80
2022/10/04 10:57:53;;;;;;;2.13;1.50;;;;;;;18.84;58.52;101991.06;6359827;22;20087;-80
2022/10/04 11:01:04;;;;;;;2.27;1.40;;;;;;;18.87;58.41;101992.81;6357843;22;20093;-80
2022/10/04 11:04:08;;;;;;;2.25;1.40;;;;;;;18.88;58.26;102005.00;6350329;22;20047;-81
2022/10/04 11:07:21;;;;;;;2.55;1.40;;;;;;;18.91;58.38;102007.63;6359395;22;20013;-81
2022/10/04 11:10:26;;;;;;;1.90;1.30;;;;;;;18.93;58.30;102007.63;6387126;22;20002;-80
2022/10/04 11:13:36;;;;;;;1.90;1.20;;;;;;;18.91;58.33;101998.03;6387459;22;20002;-80
2022/10/04 11:16:21;;;;;;;3.58;1.60;;;;;;;18.91;58.24;101991.97;6386874;22;20020;-81
2022/10/04 11:19:32;;;;;;;2.05;1.40;;;;;;;18.92;58.30;101993.69;6385598;22;20026;-80
2022/10/04 11:22:44;;;;;;;1.88;1.50;;;;;;;18.91;57.99;101998.03;6389942;22;20011;-80
2022/10/04 11:25:49;;;;;;;2.53;1.58;;;;;;;18.93;58.37;102005.03;6306885;22;20030;-81
2022/10/04 11:28:36;;;;;;;1.75;1.33;;;;;;;18.91;58.23;101999.78;6306804;22;20053;-81
2022/10/04 11:31:47;;;;;;;2.35;1.20;;;;;;;18.90;58.41;101995.41;6302036;22;20027;-81
2022/10/04 11:34:47;;;;;;;2.13;1.40;;;;;;;18.90;58.27;101995.41;6234751;23;20009;-81
2022/10/04 11:37:34;;;;;;;2.25;1.40;;;;;;;18.89;58.29;101993.69;6273512;22;20011;-81
2022/10/04 11:40:19;;;;;;;2.10;1.20;;;;;;;18.88;58.41;101982.41;6323951;22;19999;-81
2022/10/04 11:43:04;;;;;;;1.52;1.30;;;;;;;18.90;58.21;101990.22;6295048;22;20374;-81
2022/10/04 11:46:07;;;;;;;1.95;1.40;;;;;;;18.94;58.24;101985.88;6297749;22;20011;-81
2022/10/04 11:48:35;;;;;;;3.53;1.58;;;;;;;18.95;58.28;101985.03;6297830;22;20007;-81
2022/10/04 11:51:40;;;;;;;1.90;1.35;;;;;;;18.96;58.37;101981.53;6322586;22;20011;-81
2022/10/04 11:54:46;;;;;;;1.90;1.23;;;;;;;18.96;58.32;101974.59;6292430;22;20008;-80
2022/10/04 11:57:51;;;;;;;1.77;1.20;;;;;;;18.98;58.34;101971.97;6322309;22;20011;-80
2022/10/04 12:00:41;;;;;;;1.77;1.30;;;;;;;18.99;58.31;101961.56;6296179;22;20033;-80
2022/10/04 12:03:31;;;;;;;1.90;1.27;;;;;;;19.00;58.42;101965.91;6296498;22;20007;-81
2022/10/04 12:06:25;;;;;;;2.33;1.23;;;;;;;19.00;58.45;101955.47;6298530;22;20045;-80
2022/10/04 12:09:24;;;;;;;2.25;1.30;;;;;;;18.99;58.24;101951.13;6295424;22;20067;-80
2022/10/04 12:12:35;;;;;;;2.15;1.40;;;;;;;18.99;58.48;101951.13;6260833;22;20007;-80
2022/10/04 12:15:44;;;;;;;1.95;1.25;;;;;;;18.99;58.27;101945.03;6294933;22;20003;-80
2022/10/04 12:18:25;;;;;;;2.20;1.27;;;;;;;18.99;58.47;101935.47;6204130;23;20017;-81
2022/10/04 12:21:28;;;;;;;2.10;1.35;;;;;;;18.99;58.31;101925.03;6208939;23;19989;-81
2022/10/04 12:24:18;;;;;;;1.83;1.23;;;;;;;18.97;58.44;101928.53;6304589;22;20030;-81
2022/10/04 12:27:31;;;;;;;1.83;1.30;;;;;;;18.98;58.43;101923.28;6384401;22;20000;-81
2022/10/04 12:30:26;;;;;;;2.00;1.30;;;;;;;19.00;58.38;101918.94;6362376;22;20087;-81
2022/10/04 12:33:29;;;;;;;2.90;1.35;;;;;;;19.01;58.46;101911.97;6362235;22;20082;-81
2022/10/04 12:36:12;;;;;;;1.80;1.33;;;;;;;19.00;58.47;101905.91;6361742;22;20076;-81
2022/10/04 12:39:13;;;;;;;1.60;1.20;;;;;;;19.01;58.41;101907.66;6358377;22;20029;-81
2022/10/04 12:42:23;;;;;;;2.25;1.10;;;;;;;19.02;58.47;101901.56;6358556;22;20017;-81
2022/10/04 12:45:52;;;;;;;2.90;1.45;;;;;;;19.02;58.43;101906.78;6358476;22;19999;-81
2022/10/04 12:49:00;;;;;;;2.88;1.40;;;;;;;19.02;58.55;101900.69;6363902;22;20062;-81
2022/10/04 12:52:11;;;;;;;1.75;1.30;;;;;;;19.03;58.48;101897.19;6389999;22;20017;-81
2022/10/04 13:29:52;;;;;;;1.92;1.40;;;;;;;19.13;58.24;101840.69;6317248;22;20344;-81
2022/10/04 13:32:51;;;;;;;1.83;1.30;;;;;;;19.13;58.35;101835.47;6389409;22;20326;-81
2022/10/04 13:35:26;;;;;;;2.10;1.40;;;;;;;19.14;58.24;101830.28;6346008;22;20006;-81
2022/10/04 13:38:33;;;;;;;1.80;1.33;;;;;;;19.16;58.36;101835.47;6391349;22;20002;-81
2022/10/04 13:41:33;;;;;;;2.08;1.40;;;;;;;19.15;58.45;101828.53;6360647;22;20031;-82
2022/10/04 13:44:27;;;;;;;2.95;1.25;;;;;;;19.18;58.22;101820.69;6390614;22;20005;-81
2022/10/04 13:47:05;;;;;;;2.28;1.00;;;;;;;19.18;58.31;101813.72;6389941;22;19994;-81
2022/10/04 13:50:00;;;;;;;1.75;1.25;;;;;;;19.19;58.38;101820.69;6361565;22;20006;-81
2022/10/04 13:58:59;;;;;;;2.53;1.15;;;;;;;19.21;58.30;101844.19;6390736;22;19924;-81
2022/10/04 14:02:02;;;;;;;2.38;1.23;;;;;;;19.21;58.32;101845.03;6390004;22;20029;-81
2022/10/04 15:47:59;;;;;;;1.70;1.30;;;;;;;19.06;58.44;101832.88;6274818;22;20043;-81
2022/10/04 15:50:36;;;;;;;2.03;1.33;;;;;;;19.08;58.46;101830.25;6288264;22;20047;-81
2022/10/04 15:53:39;;;;;;;1.80;1.40;;;;;;;19.07;58.47;101821.53;6287457;22;20013;-80
2022/10/04 15:56:11;;;;;;;1.50;1.20;;;;;;;19.09;58.55;101827.63;6266009;22;20011;-80
2022/10/04 19:39:40;;;;;;;3.38;1.67;;;;;;;18.84;61.47;101753.75;6326751;22;20068;-80
2022/10/04 19:42:13;;;;;;;2.50;1.40;;;;;;;18.83;61.55;101756.34;6389274;22;20091;-81
2022/10/04 19:44:57;;;;;;;2.67;1.60;;;;;;;18.84;61.50;101763.31;6388078;22;20077;-81
2022/10/04 19:47:57;;;;;;;3.15;1.60;;;;;;;18.83;61.36;101761.56;6363367;22;20007;-81
2022/10/04 19:50:34;;;;;;;3.45;1.70;;;;;;;18.84;61.20;101765.94;6304265;22;20010;-80
2022/10/04 19:53:40;;;;;;;3.17;1.30;;;;;;;18.83;61.50;101770.25;6390064;22;19982;-82
2022/10/04 20:03:19;;;;;;;2.80;1.50;;;;;;;18.82;61.35;101765.91;6379259;22;20028;-82
2022/10/04 20:09:53;;;;;;;3.47;1.73;;;;;;;18.81;61.49;101764.16;6395706;22;20021;-82
2022/10/04 20:13:04;;;;;;;2.30;1.40;;;;;;;18.83;61.36;101774.59;6288296;22;20011;-82
